Terminal Aerodrome Forecast
Issued by NWS

Home | Current Version | Previous Version | Text Only | Print | Product List | Glossary On
Versions: 1 2 3 4 5 6 7 8 9 10 11 12 13 14 15 16
000
FTUS46 KLOX 232300
TAFOXR
TAF
KOXR 232334Z 2400/2424 27015KT P6SM FEW250
     FM240300 29008KT P6SM SKC
     FM240800 VRB03KT P6SM SKC
     FM241600 28005KT P6SM SKC
     FM242000 27014KT P6SM SKC=

USA.gov is the U.S. government's official web portal to all federal, state and local government web resources and services.